createdAt,value
2023-05-09T00:00:37.059Z,21.66
2023-05-09T00:05:38.721Z,21.60
2023-05-09T00:10:40.323Z,21.61
2023-05-09T00:15:41.706Z,21.59
2023-05-09T00:20:44.111Z,21.59
2023-05-09T00:25:45.534Z,21.60
2023-05-09T00:30:46.940Z,21.58
2023-05-09T00:35:48.305Z,21.57
2023-05-09T00:40:49.680Z,21.56
2023-05-09T00:45:51.077Z,21.55
2023-05-09T00:50:52.953Z,21.58
2023-05-09T00:55:55.674Z,21.55
2023-05-09T01:00:57.507Z,21.53
2023-05-09T01:06:17.623Z,21.52
2023-05-09T01:11:53.659Z,21.55
2023-05-09T01:17:35.035Z,21.62
2023-05-09T01:22:36.593Z,21.59
2023-05-09T01:28:02.714Z,21.60
2023-05-09T01:33:06.596Z,21.63
2023-05-09T01:38:12.728Z,21.66
2023-05-09T01:43:14.939Z,21.67
2023-05-09T01:48:16.326Z,21.70
2023-05-09T01:53:17.725Z,21.72
2023-05-09T01:58:19.125Z,21.72
2023-05-09T02:03:21.104Z,21.76
2023-05-09T02:08:22.515Z,21.77
2023-05-09T02:13:24.090Z,21.76
2023-05-09T02:18:25.508Z,21.80
2023-05-09T02:23:26.894Z,21.80
2023-05-09T02:28:28.308Z,21.84
2023-05-09T02:33:29.714Z,21.81
2023-05-09T02:38:31.286Z,21.86
2023-05-09T02:43:32.671Z,21.85
2023-05-09T02:48:34.326Z,21.87
2023-05-09T02:53:35.705Z,21.90
2023-05-09T02:58:37.136Z,21.89
2023-05-09T03:03:38.618Z,21.88
2023-05-09T03:08:40.170Z,21.90
2023-05-09T03:13:41.638Z,21.92
2023-05-09T03:18:43.038Z,21.91
2023-05-09T03:23:44.519Z,21.94
2023-05-09T03:28:46.258Z,21.92
2023-05-09T03:33:47.688Z,21.93
2023-05-09T03:38:49.077Z,21.93
2023-05-09T03:43:50.608Z,21.95
2023-05-09T03:48:51.978Z,21.93
2023-05-09T03:53:53.401Z,21.96
2023-05-09T03:58:54.813Z,21.96
2023-05-09T04:03:57.490Z,21.96
2023-05-09T04:08:58.908Z,21.98
2023-05-09T04:14:00.278Z,21.99
2023-05-09T04:19:01.722Z,21.99
2023-05-09T04:24:03.173Z,22.04
2023-05-09T04:29:04.576Z,22.03
2023-05-09T04:34:06.424Z,22.04
2023-05-09T04:39:10.900Z,22.05
2023-05-09T04:44:12.310Z,22.11
2023-05-09T04:49:13.714Z,22.14
2023-05-09T04:54:15.085Z,22.13
2023-05-09T04:59:16.498Z,22.18
2023-05-09T05:04:17.925Z,22.18
2023-05-09T05:09:19.331Z,22.20
2023-05-09T05:14:20.698Z,22.25
2023-05-09T05:19:22.132Z,22.26
2023-05-09T05:24:23.544Z,22.26
2023-05-09T05:29:24.919Z,22.30
2023-05-09T05:34:26.670Z,22.30
2023-05-09T05:39:28.109Z,22.29
2023-05-09T05:44:29.499Z,22.32
2023-05-09T05:49:30.898Z,22.34
2023-05-09T05:54:32.289Z,22.36
2023-05-09T05:59:33.652Z,22.33
2023-05-09T06:04:35.039Z,22.37
2023-05-09T06:09:36.435Z,22.35
2023-05-09T06:14:37.935Z,22.36
2023-05-09T06:19:39.347Z,22.39
2023-05-09T06:24:40.719Z,22.39
2023-05-09T06:29:42.122Z,22.37
2023-05-09T06:34:43.598Z,22.42
2023-05-09T06:39:44.988Z,22.52
2023-05-09T06:44:46.397Z,22.63
2023-05-09T06:49:47.824Z,22.65
2023-05-09T06:54:49.239Z,22.68
2023-05-09T06:59:50.664Z,22.73
2023-05-09T07:04:52.127Z,22.71
2023-05-09T07:10:00.645Z,22.72
2023-05-09T07:15:09.602Z,22.73
2023-05-09T07:20:11.097Z,22.77
2023-05-09T07:25:12.477Z,22.79
2023-05-09T07:30:14.329Z,22.80
2023-05-09T07:35:16.202Z,22.81
2023-05-09T07:40:17.983Z,22.82
2023-05-09T07:45:21.982Z,22.94
2023-05-09T07:50:25.041Z,22.91
2023-05-09T07:55:26.578Z,22.97
2023-05-09T08:00:27.976Z,22.96
2023-05-09T08:05:29.353Z,22.93
2023-05-09T08:10:32.076Z,22.93
2023-05-09T08:15:33.510Z,22.96
2023-05-09T08:20:36.060Z,22.99
2023-05-09T08:25:37.758Z,22.99
2023-05-09T08:30:39.273Z,23.02
2023-05-09T08:35:40.724Z,23.07
2023-05-09T08:40:42.128Z,23.12
2023-05-09T08:45:50.271Z,23.10
2023-05-09T08:50:51.680Z,23.09
2023-05-09T08:55:53.103Z,23.12
2023-05-09T09:00:55.527Z,23.16
2023-05-09T09:05:57.011Z,23.24
2023-05-09T09:10:58.469Z,23.27
2023-05-09T09:16:00.099Z,23.28
2023-05-09T09:21:10.927Z,23.34
2023-05-09T09:26:12.465Z,23.41
2023-05-09T09:31:20.805Z,23.41
2023-05-09T09:36:29.077Z,23.46
2023-05-09T09:41:37.841Z,23.45
2023-05-09T09:46:48.707Z,23.50
2023-05-09T09:51:53.967Z,23.51
2023-05-09T09:56:56.411Z,23.52
2023-05-09T10:02:07.969Z,23.56
2023-05-09T10:07:12.794Z,23.50
2023-05-09T10:12:19.503Z,23.49
2023-05-09T10:17:21.391Z,23.46
2023-05-09T10:22:22.998Z,23.47
2023-05-09T10:27:25.930Z,23.42
2023-05-09T10:32:29.436Z,23.39
2023-05-09T10:37:31.675Z,23.41
2023-05-09T10:42:34.829Z,23.37
2023-05-09T10:47:36.315Z,23.38
2023-05-09T10:53:05.713Z,23.37
2023-05-09T10:58:33.511Z,23.31
2023-05-09T11:03:54.594Z,23.27
2023-05-09T11:08:56.024Z,23.26
2023-05-09T11:13:58.260Z,23.23
2023-05-09T11:18:59.644Z,23.20
2023-05-09T11:24:01.293Z,23.17
2023-05-09T11:29:02.817Z,23.15
2023-05-09T11:34:06.242Z,23.14
2023-05-09T11:39:09.226Z,23.15
2023-05-09T11:44:20.230Z,23.12
2023-05-09T11:49:21.611Z,23.12
2023-05-09T11:54:23.407Z,23.13
2023-05-09T11:59:24.781Z,23.13
2023-05-09T12:04:26.724Z,23.14
2023-05-09T12:09:35.197Z,23.12
2023-05-09T12:14:36.598Z,23.16
2023-05-09T12:19:37.989Z,23.11
2023-05-09T12:24:39.379Z,23.14
2023-05-09T12:29:44.062Z,23.14
2023-05-09T12:34:47.581Z,23.13
2023-05-09T12:40:02.313Z,23.10
2023-05-09T12:45:04.318Z,23.07
2023-05-09T12:50:06.467Z,23.08
2023-05-09T12:55:09.448Z,23.08
2023-05-09T13:00:12.033Z,23.05
2023-05-09T13:05:15.902Z,23.02
2023-05-09T13:10:24.049Z,23.02
2023-05-09T13:15:27.565Z,22.99
2023-05-09T13:20:29.004Z,22.99
2023-05-09T13:25:30.545Z,22.96
2023-05-09T13:30:31.983Z,22.97
2023-05-09T13:35:33.369Z,23.07
2023-05-09T13:40:35.145Z,23.08
2023-05-09T13:45:36.569Z,23.13
2023-05-09T13:50:37.996Z,23.10
2023-05-09T13:55:39.376Z,23.09
2023-05-09T14:00:41.695Z,23.10
2023-05-09T14:05:43.260Z,23.07
2023-05-09T14:10:44.631Z,23.05
2023-05-09T14:15:46.083Z,23.02
2023-05-09T14:20:47.490Z,23.02
2023-05-09T14:25:48.857Z,23.03
2023-05-09T14:30:50.266Z,23.00
2023-05-09T14:35:51.642Z,23.02
2023-05-09T14:40:53.084Z,23.06
2023-05-09T14:45:54.738Z,23.02
2023-05-09T14:50:56.857Z,22.97
2023-05-09T14:55:58.279Z,23.00
2023-05-09T15:01:01.149Z,22.96
2023-05-09T15:06:02.626Z,23.01
2023-05-09T15:11:04.002Z,22.95
2023-05-09T15:16:05.436Z,22.93
2023-05-09T15:21:06.822Z,22.94
2023-05-09T15:26:08.732Z,22.91
2023-05-09T15:31:10.173Z,22.89
2023-05-09T15:36:11.621Z,22.87
2023-05-09T15:41:13.027Z,22.82
2023-05-09T15:46:14.451Z,22.83
2023-05-09T15:51:16.250Z,22.81
2023-05-09T15:56:17.642Z,22.78
2023-05-09T16:01:19.096Z,22.77
2023-05-09T16:06:20.495Z,22.75
2023-05-09T16:11:22.249Z,22.79
2023-05-09T16:16:23.697Z,22.75
2023-05-09T16:21:28.958Z,22.72
2023-05-09T16:26:30.481Z,22.70
2023-05-09T16:31:33.331Z,22.70
2023-05-09T16:36:38.151Z,22.69
2023-05-09T16:41:40.688Z,22.67
2023-05-09T16:46:42.157Z,22.67
2023-05-09T16:51:43.896Z,22.67
2023-05-09T16:56:45.323Z,22.63
2023-05-09T17:01:47.460Z,22.67
2023-05-09T17:06:51.160Z,22.60
2023-05-09T17:11:52.547Z,22.59
2023-05-09T17:16:53.993Z,22.60
2023-05-09T17:21:55.932Z,22.56
2023-05-09T17:26:57.357Z,22.50
2023-05-09T17:32:02.144Z,22.51
2023-05-09T17:37:05.543Z,22.49
2023-05-09T17:42:07.670Z,22.48
2023-05-09T17:47:09.290Z,22.48
2023-05-09T17:52:10.662Z,22.43
2023-05-09T17:57:12.127Z,22.41
2023-05-09T18:02:13.578Z,22.41
2023-05-09T18:07:14.963Z,22.44
2023-05-09T18:12:16.336Z,22.38
2023-05-09T18:17:17.712Z,22.37
2023-05-09T18:22:20.250Z,22.37
2023-05-09T18:27:21.783Z,22.36
2023-05-09T18:32:23.171Z,22.34
2023-05-09T18:37:24.702Z,22.36
2023-05-09T18:42:26.828Z,22.35
2023-05-09T18:47:28.264Z,22.36
2023-05-09T18:52:31.666Z,22.32
2023-05-09T18:57:33.681Z,22.35
2023-05-09T19:02:35.080Z,22.34
2023-05-09T19:07:37.090Z,22.30
2023-05-09T19:12:38.515Z,22.32
2023-05-09T19:17:40.118Z,22.29
2023-05-09T19:22:45.417Z,22.30
2023-05-09T19:27:46.959Z,22.32
2023-05-09T19:32:48.494Z,22.32
2023-05-09T19:37:49.936Z,22.30
2023-05-09T19:42:51.369Z,22.26
2023-05-09T19:47:54.377Z,22.27
2023-05-09T19:52:56.935Z,22.33
2023-05-09T19:57:58.314Z,22.28
2023-05-09T20:02:59.775Z,22.25
2023-05-09T20:08:01.233Z,22.27
2023-05-09T20:13:04.216Z,22.31
2023-05-09T20:18:06.971Z,22.31
2023-05-09T20:23:08.410Z,22.25
2023-05-09T20:28:11.716Z,22.25
2023-05-09T20:33:13.098Z,22.24
2023-05-09T20:38:14.558Z,22.26
2023-05-09T20:43:16.029Z,22.21
2023-05-09T20:48:17.416Z,22.19
2023-05-09T20:53:18.857Z,22.28
2023-05-09T20:58:20.300Z,22.24
2023-05-09T21:03:21.785Z,22.21
2023-05-09T21:08:23.224Z,22.18
2023-05-09T21:13:24.721Z,22.19
2023-05-09T21:18:27.291Z,22.18
2023-05-09T21:23:28.706Z,22.17
2023-05-09T21:28:30.295Z,22.14
2023-05-09T21:33:31.700Z,22.16
2023-05-09T21:38:33.068Z,22.17
2023-05-09T21:43:34.481Z,22.17
2023-05-09T21:48:35.933Z,22.13
2023-05-09T21:53:37.353Z,22.16
2023-05-09T21:58:38.847Z,22.15
2023-05-09T22:03:40.321Z,22.11
2023-05-09T22:08:41.825Z,22.12
2023-05-09T22:13:43.408Z,22.15
2023-05-09T22:18:44.794Z,22.15
2023-05-09T22:23:46.181Z,22.12
2023-05-09T22:28:48.604Z,22.06
2023-05-09T22:33:49.975Z,22.10
2023-05-09T22:38:51.527Z,22.11
2023-05-09T22:43:52.993Z,22.09
2023-05-09T22:48:54.375Z,22.09
2023-05-09T22:53:55.764Z,22.11
2023-05-09T22:58:57.162Z,22.10
2023-05-09T23:03:58.540Z,22.09
2023-05-09T23:09:00.226Z,22.09
2023-05-09T23:14:02.432Z,22.13
2023-05-09T23:19:04.276Z,22.15
2023-05-09T23:24:06.034Z,22.10
2023-05-09T23:29:07.412Z,22.08
2023-05-09T23:34:08.814Z,22.10
2023-05-09T23:39:10.332Z,22.12
2023-05-09T23:44:12.218Z,22.13
2023-05-09T23:49:14.470Z,22.11
2023-05-09T23:54:16.431Z,22.10
2023-05-09T23:59:17.803Z,22.10
